Time;durP1;ratioP1;P1;durP2;ratioP2;P2;SDS_P1;SDS_P2;PMS_P1;PMS_P2;Temp;Humidity;BMP_temperature;BMP_pressure;BME280_temperature;BME280_humidity;BME280_pressure;Samples;Min_cycle;Max_cycle;Signal;HPM_P1;HPM_P2
2022/11/23 00:00:01;;;;;;;34.03;28.42;;;7.20;99.90;;;;;;5015303;28;20049;-73
2022/11/23 00:02:26;;;;;;;42.70;32.42;;;7.20;99.90;;;;;;5015892;28;20550;-73
2022/11/23 00:04:52;;;;;;;36.63;29.60;;;7.20;99.90;;;;;;4998476;28;20422;-73
2022/11/23 00:07:18;;;;;;;38.60;29.67;;;7.20;99.90;;;;;;4998088;28;20065;-73
2022/11/23 00:09:43;;;;;;;36.25;29.27;;;7.30;99.90;;;;;;5015357;28;20512;-75
2022/11/23 00:12:09;;;;;;;36.10;29.63;;;7.30;99.90;;;;;;5015255;28;20389;-74
2022/11/23 00:14:34;;;;;;;40.58;32.25;;;7.60;99.90;;;;;;5014705;28;20083;-72
2022/11/23 00:17:00;;;;;;;37.20;30.95;;;7.30;99.90;;;;;;5005357;28;20065;-73
2022/11/23 00:19:25;;;;;;;35.42;28.35;;;7.30;99.90;;;;;;5015568;28;20343;-73
2022/11/23 00:21:51;;;;;;;40.50;31.17;;;7.50;99.90;;;;;;5015340;28;20049;-73
2022/11/23 00:24:17;;;;;;;37.25;28.85;;;7.40;99.90;;;;;;4997589;28;20182;-73
2022/11/23 00:26:42;;;;;;;38.03;30.52;;;7.40;99.90;;;;;;5014984;28;20489;-73
2022/11/23 00:29:08;;;;;;;40.80;31.50;;;7.40;99.90;;;;;;5015229;28;20129;-74
2022/11/23 00:31:34;;;;;;;41.17;29.30;;;7.40;99.90;;;;;;5004190;28;20456;-74
2022/11/23 00:34:01;;;;;;;36.72;29.98;;;7.40;99.90;;;;;;5014170;28;20057;-74
2022/11/23 00:36:27;;;;;;;41.45;31.85;;;7.40;99.90;;;;;;5015298;28;20230;-75
2022/11/23 00:38:53;;;;;;;40.95;32.22;;;7.40;99.90;;;;;;5015211;28;20037;-74
2022/11/23 00:41:25;;;;;;;37.95;30.80;;;7.40;99.90;;;;;;5015206;28;20052;-73
2022/11/23 00:43:50;;;;;;;41.20;31.40;;;7.50;99.90;;;;;;5014647;28;20041;-74
2022/11/23 00:46:17;;;;;;;44.08;31.33;;;7.40;99.90;;;;;;5014721;28;20052;-73
2022/11/23 00:48:44;;;;;;;40.78;30.35;;;7.50;99.90;;;;;;4997812;28;20387;-74
2022/11/23 00:51:12;;;;;;;39.22;31.77;;;7.40;99.90;;;;;;5015025;28;20366;-74
2022/11/23 00:53:38;;;;;;;39.67;31.75;;;7.40;99.90;;;;;;5015065;28;20075;-73
2022/11/23 00:56:04;;;;;;;37.55;31.00;;;7.50;99.90;;;;;;5014925;28;20042;-73
2022/11/23 00:58:30;;;;;;;43.28;31.73;;;7.40;99.90;;;;;;4998061;28;20339;-74
2022/11/23 01:01:13;;;;;;;36.25;30.40;;;7.50;99.90;;;;;;5014594;28;20057;-73
2022/11/23 01:03:41;;;;;;;41.97;31.33;;;7.50;99.90;;;;;;5015396;28;20057;-73
2022/11/23 01:06:13;;;;;;;42.17;32.05;;;7.50;99.90;;;;;;4997344;28;20054;-73
2022/11/23 01:08:39;;;;;;;36.08;29.33;;;7.50;99.90;;;;;;5014811;28;20485;-73
2022/11/23 01:11:07;;;;;;;40.97;30.25;;;7.50;99.90;;;;;;5014739;28;20054;-74
2022/11/23 01:13:33;;;;;;;39.17;30.08;;;7.50;99.90;;;;;;5014548;28;20049;-73
2022/11/23 01:16:00;;;;;;;35.30;29.55;;;7.90;99.90;;;;;;4999503;28;20046;-74
2022/11/23 01:18:26;;;;;;;38.90;28.88;;;7.50;99.90;;;;;;5014550;28;20354;-73
2022/11/23 01:20:51;;;;;;;37.80;29.23;;;7.60;99.90;;;;;;5014338;28;20136;-74
2022/11/23 01:23:17;;;;;;;34.47;28.20;;;7.60;99.90;;;;;;5014807;28;20116;-74
2022/11/23 01:25:43;;;;;;;41.10;30.60;;;7.60;99.90;;;;;;5014738;28;20046;-73
2022/11/23 01:28:09;;;;;;;37.35;29.27;;;7.60;99.90;;;;;;5014530;28;20077;-73
2022/11/23 01:30:35;;;;;;;34.70;26.15;;;7.60;99.90;;;;;;4999602;28;20391;-73
2022/11/23 01:33:02;;;;;;;47.75;29.40;;;7.60;99.90;;;;;;5014585;28;20465;-73
2022/11/23 01:35:28;;;;;;;28.65;25.55;;;7.60;99.90;;;;;;5015519;28;20046;-73
2022/11/23 01:37:54;;;;;;;33.17;25.98;;;7.70;99.90;;;;;;5000899;28;20041;-73
2022/11/23 01:40:19;;;;;;;33.25;27.00;;;7.60;99.90;;;;;;5018407;28;20125;-74
2022/11/23 01:42:57;;;;;;;39.65;28.63;;;7.60;99.90;;;;;;5017968;28;20458;-73
2022/11/23 01:45:33;;;;;;;37.05;27.67;;;7.60;99.90;;;;;;5017890;28;20054;-74
2022/11/23 01:48:00;;;;;;;35.83;28.77;;;7.60;99.90;;;;;;5001135;28;20049;-73
2022/11/23 01:50:25;;;;;;;41.25;28.67;;;7.60;99.90;;;;;;5018056;28;20107;-73
2022/11/23 01:52:51;;;;;;;39.10;29.23;;;7.60;99.90;;;;;;5017944;28;20050;-74
2022/11/23 01:55:17;;;;;;;34.25;27.38;;;7.70;99.90;;;;;;5018074;28;20365;-73
2022/11/23 01:57:44;;;;;;;41.33;27.35;;;7.60;99.90;;;;;;5017744;28;20041;-75
2022/11/23 02:00:12;;;;;;;32.58;25.35;;;7.70;99.90;;;;;;5018360;28;20381;-73
2022/11/23 02:02:44;;;;;;;40.83;28.35;;;7.60;99.90;;;;;;5017649;28;20070;-72
2022/11/23 02:05:10;;;;;;;39.55;26.58;;;7.60;99.90;;;;;;5018047;28;20117;-73
2022/11/23 02:07:37;;;;;;;31.27;26.30;;;7.70;99.90;;;;;;5017916;28;20061;-74
2022/11/23 02:10:03;;;;;;;37.00;26.08;;;7.80;99.90;;;;;;5017782;28;20085;-74
2022/11/23 02:12:29;;;;;;;34.10;27.02;;;7.70;99.90;;;;;;5016876;28;20045;-73
2022/11/23 02:14:55;;;;;;;34.58;26.50;;;7.80;99.90;;;;;;5017461;28;20351;-74
2022/11/23 02:17:20;;;;;;;34.40;26.08;;;7.70;99.90;;;;;;5017630;28;20050;-73
2022/11/23 02:20:06;;;;;;;34.70;26.33;;;7.70;99.90;;;;;;5017823;28;20061;-73
2022/11/23 02:23:02;;;;;;;33.30;24.02;;;7.70;99.90;;;;;;5000270;28;20129;-74
2022/11/23 02:25:35;;;;;;;36.15;26.23;;;7.70;99.90;;;;;;5017117;28;20121;-74
2022/11/23 02:28:01;;;;;;;34.60;24.88;;;7.70;99.90;;;;;;5017214;28;20046;-74
2022/11/23 02:30:30;;;;;;;32.22;24.65;;;7.70;99.90;;;;;;5017284;28;20141;-72
2022/11/23 02:32:56;;;;;;;40.35;26.95;;;7.70;99.90;;;;;;5017363;28;20046;-73
2022/11/23 02:35:21;;;;;;;34.33;25.63;;;7.70;99.90;;;;;;5017106;28;20065;-74
2022/11/23 02:37:48;;;;;;;33.92;25.02;;;7.70;99.90;;;;;;5017040;28;20061;-73
2022/11/23 02:40:35;;;;;;;35.72;26.20;;;7.70;99.90;;;;;;5017158;28;20069;-73
2022/11/23 02:43:00;;;;;;;32.20;26.60;;;8.00;99.90;;;;;;4990068;28;20105;-73
2022/11/23 02:45:42;;;;;;;33.55;25.30;;;7.70;99.90;;;;;;5017277;28;20053;-75
2022/11/23 02:48:07;;;;;;;33.55;25.10;;;7.70;99.90;;;;;;5016754;28;20463;-73
2022/11/23 02:50:34;;;;;;;33.13;24.05;;;7.70;99.90;;;;;;5016847;28;20042;-74
2022/11/23 02:53:00;;;;;;;32.95;25.00;;;7.70;99.90;;;;;;5017090;28;20099;-73
2022/11/23 02:55:25;;;;;;;33.13;24.10;;;7.70;99.90;;;;;;5016840;28;20062;-74
2022/11/23 02:57:51;;;;;;;33.88;24.48;;;7.90;99.90;;;;;;5016691;28;20038;-73
2022/11/23 03:00:17;;;;;;;36.58;26.52;;;7.80;99.90;;;;;;5016909;28;20516;-73
2022/11/23 03:02:43;;;;;;;33.25;24.55;;;7.80;99.90;;;;;;5016572;28;20041;-73
2022/11/23 03:05:08;;;;;;;31.20;24.15;;;7.80;99.90;;;;;;5007983;28;20112;-73
2022/11/23 03:07:34;;;;;;;28.63;23.00;;;7.80;99.90;;;;;;5012174;28;20045;-74
2022/11/23 03:10:00;;;;;;;31.50;24.90;;;7.80;99.90;;;;;;5016454;28;20058;-73
2022/11/23 03:12:25;;;;;;;31.90;22.25;;;7.80;99.90;;;;;;5016145;28;20045;-73
2022/11/23 03:14:51;;;;;;;38.33;25.67;;;7.70;99.90;;;;;;5016433;28;20084;-73
2022/11/23 03:17:17;;;;;;;32.03;23.55;;;7.70;99.90;;;;;;4999171;28;20052;-74
2022/11/23 03:19:42;;;;;;;30.20;22.38;;;7.80;99.90;;;;;;5016382;28;20076;-73
2022/11/23 03:22:08;;;;;;;32.33;23.33;;;7.80;99.90;;;;;;5016215;28;20129;-72
2022/11/23 03:24:33;;;;;;;29.70;22.75;;;7.70;99.90;;;;;;5016239;28;20042;-72
2022/11/23 03:26:59;;;;;;;33.63;24.88;;;7.80;99.90;;;;;;5015732;28;20042;-74
2022/11/23 03:29:25;;;;;;;35.08;23.33;;;7.80;99.90;;;;;;5016451;28;20044;-73
2022/11/23 03:31:54;;;;;;;30.45;21.42;;;7.80;99.90;;;;;;5015981;28;20103;-73
2022/11/23 03:34:20;;;;;;;33.22;23.55;;;7.70;99.90;;;;;;5016178;28;20046;-73
2022/11/23 03:36:45;;;;;;;35.78;24.10;;;7.90;99.90;;;;;;4998513;28;20057;-73
2022/11/23 03:39:11;;;;;;;33.15;23.50;;;7.80;99.90;;;;;;5016165;28;20041;-74
2022/11/23 03:41:36;;;;;;;35.92;25.08;;;7.80;99.90;;;;;;5015870;28;20520;-73
2022/11/23 03:44:03;;;;;;;36.30;25.13;;;7.80;99.90;;;;;;5015753;28;20073;-73
2022/11/23 03:46:29;;;;;;;37.30;24.17;;;7.80;99.90;;;;;;5015555;28;20049;-74
2022/11/23 03:48:54;;;;;;;36.78;23.85;;;7.80;99.90;;;;;;5016526;28;20099;-73
2022/11/23 03:51:20;;;;;;;37.65;25.88;;;7.80;99.90;;;;;;5015976;28;20115;-74
2022/11/23 03:53:45;;;;;;;39.28;24.48;;;7.80;99.90;;;;;;5015918;28;20046;-74
2022/11/23 03:56:12;;;;;;;37.75;25.75;;;7.80;99.90;;;;;;5015747;28;20077;-73
2022/11/23 03:58:38;;;;;;;38.17;27.15;;;7.80;99.90;;;;;;5015106;28;20057;-74
2022/11/23 04:01:03;;;;;;;39.60;25.10;;;7.80;99.90;;;;;;5015091;28;20053;-73
2022/11/23 04:03:29;;;;;;;38.53;24.77;;;7.80;99.90;;;;;;4998580;28;20057;-73
2022/11/23 04:05:54;;;;;;;36.70;24.33;;;7.70;99.90;;;;;;5015711;28;20049;-73
2022/11/23 04:08:20;;;;;;;37.78;25.42;;;8.00;99.90;;;;;;5015076;28;20050;-75
2022/11/23 04:10:45;;;;;;;48.17;27.48;;;7.60;99.90;;;;;;5015396;28;20061;-74
2022/11/23 04:13:11;;;;;;;40.63;26.73;;;7.60;99.90;;;;;;5014840;28;20057;-74
2022/11/23 04:15:37;;;;;;;42.47;26.08;;;7.60;99.90;;;;;;4998192;28;20045;-74
2022/11/23 04:18:02;;;;;;;49.50;28.25;;;7.60;99.90;;;;;;4995079;28;20136;-73
2022/11/23 04:20:28;;;;;;;48.03;26.38;;;7.60;99.90;;;;;;5015367;28;20084;-73
2022/11/23 04:22:54;;;;;;;50.00;28.77;;;7.60;99.90;;;;;;5015391;28;20046;-74
2022/11/23 04:25:19;;;;;;;43.90;29.95;;;7.60;99.90;;;;;;5015363;28;20501;-72
2022/11/23 04:27:45;;;;;;;47.70;29.33;;;7.60;99.90;;;;;;5012285;28;20053;-74
2022/11/23 04:30:11;;;;;;;51.13;32.65;;;7.80;99.90;;;;;;5010784;28;20466;-73
2022/11/23 04:32:37;;;;;;;50.92;30.70;;;7.70;99.90;;;;;;5015183;28;20049;-74
2022/11/23 04:35:03;;;;;;;49.17;29.20;;;7.70;99.90;;;;;;5014997;28;20058;-74
2022/11/23 04:37:28;;;;;;;48.60;30.40;;;7.70;99.90;;;;;;5014964;28;20459;-73
2022/11/23 04:39:54;;;;;;;47.13;29.38;;;7.70;99.90;;;;;;5015201;28;20100;-73
2022/11/23 04:42:20;;;;;;;50.08;31.05;;;7.70;99.90;;;;;;5014952;28;20052;-73
2022/11/23 04:44:45;;;;;;;47.85;30.33;;;7.70;99.90;;;;;;5015313;28;20076;-73
2022/11/23 04:47:11;;;;;;;53.15;31.75;;;7.70;99.90;;;;;;5006900;28;20116;-73
2022/11/23 04:49:37;;;;;;;53.65;30.20;;;7.70;99.90;;;;;;5009630;28;20447;-73
2022/11/23 04:52:03;;;;;;;53.88;30.98;;;7.70;99.90;;;;;;5015247;28;20049;-74
2022/11/23 04:54:29;;;;;;;50.70;30.83;;;7.70;99.90;;;;;;5015152;28;20378;-72
2022/11/23 04:56:55;;;;;;;48.78;28.88;;;7.70;99.90;;;;;;4997370;28;20049;-72
2022/11/23 04:59:21;;;;;;;58.78;31.58;;;7.70;99.90;;;;;;5015342;28;20088;-74
2022/11/23 05:01:53;;;;;;;54.05;31.80;;;7.70;99.90;;;;;;4997486;28;20046;-71
2022/11/23 05:04:19;;;;;;;55.10;31.55;;;7.70;99.90;;;;;;5014978;28;20446;-73
2022/11/23 05:06:45;;;;;;;59.58;34.35;;;7.80;99.90;;;;;;5014972;28;20048;-73
2022/11/23 05:09:11;;;;;;;49.90;30.25;;;7.70;99.90;;;;;;5009926;28;20042;-72
2022/11/23 05:11:37;;;;;;;55.05;32.90;;;7.70;99.90;;;;;;5019225;28;20053;-73
2022/11/23 05:14:03;;;;;;;53.78;32.92;;;7.80;99.90;;;;;;5018896;28;20056;-73
2022/11/23 05:16:29;;;;;;;48.50;30.98;;;7.80;99.90;;;;;;5018418;28;20041;-73
2022/11/23 05:18:54;;;;;;;61.28;34.83;;;7.70;99.90;;;;;;5018814;28;20141;-73
2022/11/23 05:21:20;;;;;;;51.38;32.47;;;7.80;99.90;;;;;;5018639;28;20044;-73
2022/11/23 05:23:46;;;;;;;53.40;33.47;;;7.80;99.90;;;;;;5019166;28;20049;-72
2022/11/23 05:26:11;;;;;;;50.75;32.95;;;7.80;99.90;;;;;;5018554;28;20078;-73
2022/11/23 05:28:37;;;;;;;50.38;32.20;;;8.00;99.90;;;;;;5000732;28;20053;-73
2022/11/23 05:31:04;;;;;;;53.03;33.42;;;7.80;99.90;;;;;;5018360;28;20048;-74
2022/11/23 05:33:29;;;;;;;50.92;33.10;;;7.80;99.90;;;;;;5018824;28;20053;-75
2022/11/23 05:35:55;;;;;;;53.33;32.28;;;7.80;99.90;;;;;;5018538;28;20041;-73
2022/11/23 05:38:20;;;;;;;58.28;34.63;;;7.80;99.90;;;;;;5001016;28;20053;-74
2022/11/23 05:40:46;;;;;;;62.40;35.35;;;7.80;99.90;;;;;;5001083;28;20184;-74
2022/11/23 05:43:12;;;;;;;51.85;31.75;;;7.80;99.90;;;;;;5018350;28;20042;-74
2022/11/23 05:45:38;;;;;;;48.17;32.15;;;7.90;99.90;;;;;;5018363;28;20052;-73
2022/11/23 05:48:04;;;;;;;55.35;33.13;;;7.80;99.90;;;;;;5017329;28;20528;-74
2022/11/23 05:50:30;;;;;;;50.42;33.20;;;7.80;99.90;;;;;;5017032;28;20052;-73
2022/11/23 05:52:59;;;;;;;50.25;30.60;;;7.80;99.90;;;;;;5018501;28;20039;-75
2022/11/23 05:55:25;;;;;;;45.85;32.63;;;7.90;99.90;;;;;;5037752;28;20087;-73
2022/11/23 05:57:51;;;;;;;51.00;31.10;;;7.90;99.90;;;;;;5038268;28;21079;-73
2022/11/23 06:00:18;;;;;;;49.50;30.60;;;7.90;99.90;;;;;;5020781;28;20059;-72
2022/11/23 06:02:43;;;;;;;55.42;32.80;;;7.90;99.90;;;;;;5020277;28;20104;-73
2022/11/23 06:05:09;;;;;;;53.35;32.05;;;7.90;99.90;;;;;;5017520;28;20050;-71
2022/11/23 06:07:35;;;;;;;49.25;30.10;;;7.80;99.90;;;;;;5018211;28;20050;-72
2022/11/23 06:10:02;;;;;;;44.92;28.85;;;7.80;99.90;;;;;;5018064;28;20065;-73
2022/11/23 06:12:28;;;;;;;49.15;31.15;;;7.80;99.90;;;;;;5017744;28;20058;-73
2022/11/23 06:14:54;;;;;;;42.60;28.77;;;7.80;99.90;;;;;;5017796;28;20096;-73
2022/11/23 06:17:20;;;;;;;43.55;28.65;;;8.00;99.90;;;;;;4983270;28;20058;-73
2022/11/23 06:19:45;;;;;;;47.17;28.25;;;7.80;99.90;;;;;;5017546;28;20050;-74
2022/11/23 06:22:11;;;;;;;46.80;28.95;;;7.80;99.90;;;;;;5017731;28;20085;-73
2022/11/23 06:24:37;;;;;;;47.22;29.20;;;7.80;99.90;;;;;;5018406;28;20512;-73
2022/11/23 06:27:02;;;;;;;43.83;27.65;;;7.70;99.90;;;;;;5017854;28;20060;-73
2022/11/23 06:29:28;;;;;;;42.08;26.85;;;7.70;99.90;;;;;;5017388;28;20131;-74
2022/11/23 06:31:53;;;;;;;47.03;28.15;;;7.70;99.90;;;;;;5017556;28;20045;-73
2022/11/23 06:34:19;;;;;;;43.28;25.88;;;7.60;99.90;;;;;;5017123;28;20061;-73
2022/11/23 06:36:45;;;;;;;49.13;28.08;;;7.60;99.90;;;;;;5017504;28;20080;-74
2022/11/23 06:39:12;;;;;;;40.28;25.77;;;7.60;99.90;;;;;;5017328;28;20053;-73
2022/11/23 06:41:38;;;;;;;37.22;24.73;;;7.60;99.90;;;;;;5017467;28;20156;-74
2022/11/23 06:44:04;;;;;;;42.10;24.73;;;7.60;99.90;;;;;;5017711;28;20198;-73
2022/11/23 06:46:29;;;;;;;47.28;25.70;;;7.60;99.90;;;;;;5017589;28;20037;-74
2022/11/23 06:48:55;;;;;;;35.45;23.83;;;7.60;99.90;;;;;;5016999;28;20469;-73
2022/11/23 06:51:20;;;;;;;39.42;24.75;;;7.60;99.90;;;;;;5017229;28;20042;-73
2022/11/23 06:53:46;;;;;;;39.67;24.05;;;7.60;99.90;;;;;;5017287;28;20069;-73
2022/11/23 06:56:11;;;;;;;40.15;23.73;;;7.50;99.90;;;;;;5017299;28;20133;-73
2022/11/23 06:58:37;;;;;;;38.80;23.05;;;7.50;99.90;;;;;;5000486;28;20050;-73
2022/11/23 07:01:06;;;;;;;42.50;23.48;;;7.50;99.90;;;;;;5017197;28;20049;-73
2022/11/23 07:03:31;;;;;;;38.28;23.25;;;7.50;99.90;;;;;;5016513;28;20096;-74
2022/11/23 07:05:57;;;;;;;34.75;22.45;;;7.50;99.90;;;;;;5017023;28;20506;-73
2022/11/23 07:08:24;;;;;;;36.20;21.88;;;7.40;99.90;;;;;;5017097;28;20041;-73
2022/11/23 07:10:49;;;;;;;36.50;22.10;;;7.50;99.90;;;;;;5037345;28;20465;-73
2022/11/23 07:13:15;;;;;;;35.05;21.35;;;7.40;99.90;;;;;;5036914;28;20052;-74
2022/11/23 07:15:41;;;;;;;33.20;20.73;;;7.40;99.90;;;;;;5036153;28;20464;-73
2022/11/23 07:18:10;;;;;;;35.78;20.83;;;7.50;99.90;;;;;;5031141;28;20374;-73
2022/11/23 07:20:36;;;;;;;34.60;20.45;;;7.40;99.90;;;;;;5036187;28;20347;-73
2022/11/23 07:23:03;;;;;;;36.05;20.10;;;7.50;99.90;;;;;;5036466;28;20064;-73
2022/11/23 07:25:31;;;;;;;35.03;18.58;;;7.50;99.90;;;;;;5035966;28;20045;-74
2022/11/23 07:27:58;;;;;;;27.15;17.63;;;7.50;99.90;;;;;;5036076;28;20052;-73
2022/11/23 07:30:24;;;;;;;32.03;18.13;;;7.50;99.90;;;;;;5036248;28;20045;-73
2022/11/23 07:32:51;;;;;;;24.70;16.45;;;7.50;99.90;;;;;;5029369;28;20442;-74
2022/11/23 07:35:17;;;;;;;24.45;15.30;;;7.50;99.90;;;;;;5016259;28;20049;-73
2022/11/23 07:37:43;;;;;;;29.00;15.25;;;7.50;99.90;;;;;;5016292;28;20053;-73
2022/11/23 07:40:09;;;;;;;29.33;14.40;;;7.60;99.90;;;;;;5015783;28;20046;-73
2022/11/23 07:42:35;;;;;;;25.42;13.82;;;7.60;99.90;;;;;;5015996;28;20045;-73
2022/11/23 07:45:01;;;;;;;27.10;14.75;;;7.60;99.90;;;;;;5016098;28;20054;-73
2022/11/23 07:47:27;;;;;;;27.48;13.77;;;7.60;99.90;;;;;;5015896;28;20100;-75
2022/11/23 07:49:53;;;;;;;27.88;13.93;;;7.60;99.90;;;;;;5016635;28;20346;-73
2022/11/23 07:52:18;;;;;;;27.50;13.13;;;7.60;99.90;;;;;;5016767;28;20048;-75
2022/11/23 07:54:44;;;;;;;24.85;13.38;;;7.70;99.90;;;;;;5016077;28;20128;-73
2022/11/23 07:57:09;;;;;;;22.98;13.00;;;7.60;99.90;;;;;;5016352;28;20051;-74
2022/11/23 07:59:35;;;;;;;36.53;13.90;;;7.70;99.90;;;;;;5015831;28;20473;-74
2022/11/23 08:02:01;;;;;;;26.65;12.35;;;7.70;99.90;;;;;;5015207;28;20049;-74
2022/11/23 08:04:27;;;;;;;22.60;12.00;;;7.70;99.90;;;;;;5016103;28;20077;-73
2022/11/23 08:06:54;;;;;;;26.45;11.88;;;7.70;99.90;;;;;;5036032;28;20057;-74
2022/11/23 08:09:19;;;;;;;26.13;11.95;;;7.70;99.90;;;;;;5035113;28;20045;-74
2022/11/23 08:11:45;;;;;;;26.02;12.07;;;7.70;99.90;;;;;;5035380;28;20137;-73
2022/11/23 08:14:11;;;;;;;29.00;12.00;;;7.70;99.90;;;;;;5035027;28;20454;-74
2022/11/23 08:16:36;;;;;;;21.65;11.10;;;7.80;99.90;;;;;;5033968;28;20041;-73
2022/11/23 08:19:02;;;;;;;21.52;10.80;;;7.80;99.90;;;;;;5015518;28;20057;-75
2022/11/23 08:21:28;;;;;;;25.33;11.75;;;7.80;99.90;;;;;;5015659;28;20045;-73
2022/11/23 08:23:53;;;;;;;26.98;11.20;;;7.80;99.90;;;;;;5015778;28;20414;-73
2022/11/23 08:26:19;;;;;;;22.23;10.25;;;7.80;99.90;;;;;;5017554;28;20076;-73
2022/11/23 08:28:45;;;;;;;25.70;10.68;;;7.80;99.90;;;;;;5035168;28;20053;-73
2022/11/23 08:31:11;;;;;;;18.85;10.27;;;7.90;99.90;;;;;;5009621;28;20342;-74
2022/11/23 08:33:38;;;;;;;25.98;11.32;;;7.90;99.90;;;;;;5015076;28;20050;-74
2022/11/23 08:36:05;;;;;;;21.25;10.18;;;7.90;99.90;;;;;;5016040;28;20427;-74
2022/11/23 08:38:32;;;;;;;24.40;10.95;;;8.00;99.90;;;;;;5015533;28;20054;-73
2022/11/23 08:40:59;;;;;;;27.33;10.50;;;7.90;99.90;;;;;;5015163;28;20042;-73
2022/11/23 08:43:25;;;;;;;22.83;9.55;;;8.00;99.90;;;;;;5015949;28;20046;-73
2022/11/23 08:45:58;;;;;;;26.33;10.95;;;8.00;99.90;;;;;;5015095;28;20359;-73
2022/11/23 08:48:24;;;;;;;22.07;9.47;;;8.00;99.90;;;;;;5013817;28;20147;-74
2022/11/23 08:50:50;;;;;;;20.85;9.68;;;8.10;99.90;;;;;;5014807;28;20042;-74
2022/11/23 08:53:16;;;;;;;21.30;9.57;;;8.10;99.90;;;;;;5014548;28;20351;-74
2022/11/23 08:55:42;;;;;;;27.20;9.60;;;8.10;99.90;;;;;;5014845;28;20038;-73
2022/11/23 08:58:08;;;;;;;19.20;9.07;;;8.10;99.90;;;;;;5014973;28;20359;-73
2022/11/23 09:00:34;;;;;;;21.48;10.35;;;8.10;99.90;;;;;;5015461;28;20053;-74
2022/11/23 09:02:59;;;;;;;19.90;9.63;;;8.20;99.90;;;;;;5017137;28;20454;-74
2022/11/23 09:05:26;;;;;;;23.45;9.93;;;8.20;99.90;;;;;;5014200;28;20045;-74
2022/11/23 09:07:52;;;;;;;23.08;10.70;;;8.30;99.90;;;;;;5015224;28;20049;-73
2022/11/23 09:10:18;;;;;;;18.77;9.18;;;8.30;99.90;;;;;;5015102;28;20054;-73
2022/11/23 09:12:43;;;;;;;18.88;8.60;;;8.30;99.90;;;;;;5015572;28;20092;-74
2022/11/23 09:15:09;;;;;;;21.15;8.98;;;8.40;99.90;;;;;;5015095;28;20104;-73
2022/11/23 09:17:35;;;;;;;22.27;8.88;;;8.60;99.90;;;;;;5014724;28;20124;-73
2022/11/23 09:20:00;;;;;;;23.35;9.23;;;8.60;99.90;;;;;;5126489;23;20450;-73
2022/11/23 09:22:26;;;;;;;20.25;9.10;;;8.60;99.90;;;;;;5020036;28;20457;-73
2022/11/23 09:24:52;;;;;;;25.33;9.30;;;8.60;99.90;;;;;;5025128;28;20366;-74
2022/11/23 09:27:18;;;;;;;24.60;9.45;;;8.60;99.90;;;;;;5017783;28;20046;-75
2022/11/23 09:29:44;;;;;;;22.23;9.18;;;8.60;99.90;;;;;;5035151;28;20462;-74
2022/11/23 09:32:10;;;;;;;21.83;8.73;;;8.70;99.90;;;;;;5034690;28;20033;-74
2022/11/23 09:34:35;;;;;;;21.35;9.00;;;8.80;99.90;;;;;;5034412;28;20117;-74
2022/11/23 09:37:01;;;;;;;22.63;8.88;;;8.80;99.90;;;;;;5034304;28;20457;-74
2022/11/23 09:39:26;;;;;;;22.73;7.95;;;8.80;99.90;;;;;;5026633;28;20052;-74
2022/11/23 09:41:58;;;;;;;22.17;8.15;;;8.90;99.90;;;;;;5034377;28;20374;-74
2022/11/23 09:44:51;;;;;;;24.40;8.38;;;8.90;99.90;;;;;;5034213;28;20048;-74
2022/11/23 09:47:44;;;;;;;20.50;7.35;;;8.90;99.90;;;;;;5034593;28;20355;-73
2022/11/23 09:50:37;;;;;;;20.15;7.85;;;8.90;99.90;;;;;;5034117;28;20045;-74
2022/11/23 09:53:10;;;;;;;23.75;7.22;;;9.00;99.90;;;;;;5012560;28;20101;-74
2022/11/23 09:55:44;;;;;;;20.02;8.18;;;8.90;99.90;;;;;;5015117;28;20338;-73
2022/11/23 09:58:15;;;;;;;23.67;7.75;;;8.90;99.90;;;;;;5017949;28;20121;-74
2022/11/23 10:00:47;;;;;;;18.50;7.30;;;9.00;99.90;;;;;;5018332;28;20474;-74
2022/11/23 10:03:15;;;;;;;20.30;7.55;;;9.00;99.90;;;;;;5018271;28;20057;-73
2022/11/23 10:06:06;;;;;;;22.48;7.72;;;9.00;99.90;;;;;;5018202;28;20042;-75
2022/11/23 10:08:38;;;;;;;18.67;6.95;;;9.00;99.90;;;;;;5005786;28;20128;-74
2022/11/23 10:11:21;;;;;;;21.38;7.80;;;9.00;99.90;;;;;;5018262;28;20076;-74
2022/11/23 10:14:12;;;;;;;18.30;7.85;;;9.00;99.90;;;;;;5017899;28;20042;-73
2022/11/23 10:16:55;;;;;;;20.80;7.60;;;9.10;99.90;;;;;;5018003;28;20120;-73
2022/11/23 10:19:46;;;;;;;21.13;7.50;;;9.10;99.90;;;;;;5017500;28;20451;-74
2022/11/23 10:22:22;;;;;;;22.40;7.82;;;9.00;99.90;;;;;;5017337;28;20061;-72
2022/11/23 10:24:52;;;;;;;20.42;7.45;;;9.00;99.90;;;;;;5037541;28;20080;-74
2022/11/23 10:27:23;;;;;;;24.42;7.80;;;9.00;99.90;;;;;;5037187;28;20053;-74
2022/11/23 10:29:51;;;;;;;18.13;6.25;;;9.00;99.90;;;;;;5037024;28;20442;-73
2022/11/23 10:32:31;;;;;;;21.20;6.32;;;9.00;99.90;;;;;;5037373;28;20116;-74
2022/11/23 10:35:37;;;;;;;22.15;6.53;;;9.00;99.90;;;;;;5037347;28;20037;-75
2022/11/23 10:38:11;;;;;;;23.70;6.80;;;8.90;99.90;;;;;;4976987;28;20053;-74
2022/11/23 10:40:42;;;;;;;23.65;7.40;;;8.90;99.90;;;;;;4998345;28;20104;-73
2022/11/23 10:43:19;;;;;;;19.90;6.40;;;8.90;99.90;;;;;;4998034;28;20120;-74
2022/11/23 10:45:45;;;;;;;20.05;7.30;;;9.00;99.90;;;;;;4997445;28;20057;-73
2022/11/23 10:48:11;;;;;;;20.00;5.85;;;9.00;99.90;;;;;;4980324;28;20050;-75
2022/11/23 10:50:39;;;;;;;20.10;5.78;;;9.00;99.90;;;;;;4997676;28;20394;-73
2022/11/23 10:53:05;;;;;;;19.08;5.40;;;9.00;99.90;;;;;;5011018;28;20046;-73
2022/11/23 10:55:33;;;;;;;16.63;5.45;;;9.00;99.90;;;;;;5017691;28;20157;-74
2022/11/23 10:57:59;;;;;;;18.13;5.35;;;9.00;99.90;;;;;;5016717;28;20037;-73
2022/11/23 11:00:27;;;;;;;15.30;5.03;;;9.00;99.90;;;;;;5017837;28;20125;-73
2022/11/23 11:02:57;;;;;;;15.00;5.03;;;9.00;99.90;;;;;;5036635;28;20365;-74
2022/11/23 11:05:32;;;;;;;21.83;5.07;;;9.00;99.90;;;;;;5036882;28;20045;-74
2022/11/23 11:08:01;;;;;;;18.50;5.45;;;9.00;99.90;;;;;;5036137;28;20045;-74
2022/11/23 11:10:41;;;;;;;21.23;5.28;;;9.00;99.90;;;;;;5036775;28;20104;-75
2022/11/23 11:13:24;;;;;;;21.00;5.43;;;9.00;99.90;;;;;;5036471;28;20048;-73
2022/11/23 11:15:51;;;;;;;21.98;5.30;;;9.10;99.90;;;;;;5036611;28;20080;-74
2022/11/23 11:18:18;;;;;;;19.48;5.57;;;9.20;99.90;;;;;;5037067;28;20045;-74
2022/11/23 11:20:45;;;;;;;19.65;5.40;;;9.20;99.90;;;;;;5036597;28;20064;-73
2022/11/23 11:23:20;;;;;;;18.98;5.05;;;9.30;99.90;;;;;;5001136;28;20056;-74
2022/11/23 11:25:47;;;;;;;22.88;6.15;;;9.30;99.90;;;;;;5019375;28;20045;-73
2022/11/23 11:28:33;;;;;;;15.82;5.10;;;9.30;99.90;;;;;;5036008;28;20045;-73
2022/11/23 11:31:21;;;;;;;17.42;5.13;;;9.30;99.90;;;;;;5036327;28;20507;-74
2022/11/23 11:34:01;;;;;;;22.85;5.45;;;9.40;99.90;;;;;;5035866;28;20125;-74
2022/11/23 11:36:33;;;;;;;22.45;5.28;;;9.40;99.90;;;;;;5029560;28;20114;-74
2022/11/23 11:39:03;;;;;;;21.08;5.53;;;9.40;99.90;;;;;;5016080;28;20434;-75
2022/11/23 11:41:30;;;;;;;17.15;5.03;;;9.50;99.90;;;;;;5016576;28;20057;-75
2022/11/23 11:44:05;;;;;;;24.73;5.57;;;9.50;99.90;;;;;;5016077;28;20116;-74
2022/11/23 11:46:37;;;;;;;21.33;5.00;;;9.50;99.90;;;;;;5015965;28;20361;-74
2022/11/23 11:49:10;;;;;;;18.98;4.80;;;9.50;99.90;;;;;;5016436;28;20049;-74
2022/11/23 11:51:43;;;;;;;18.48;5.05;;;9.50;99.90;;;;;;5015710;28;20046;-74
2022/11/23 11:54:25;;;;;;;25.33;5.53;;;9.40;99.90;;;;;;5035658;28;20045;-74
2022/11/23 11:56:56;;;;;;;20.45;5.03;;;9.40;99.90;;;;;;5035894;28;20049;-73
2022/11/23 11:59:33;;;;;;;18.80;4.88;;;9.40;99.90;;;;;;5035981;28;20103;-73
2022/11/23 12:02:18;;;;;;;19.65;4.35;;;9.40;99.90;;;;;;5035906;28;20067;-73
2022/11/23 12:04:52;;;;;;;21.35;5.20;;;9.30;99.90;;;;;;5035566;28;20051;-73
2022/11/23 12:07:41;;;;;;;14.60;4.00;;;9.40;99.90;;;;;;5017533;28;20053;-73
2022/11/23 12:10:20;;;;;;;18.02;4.35;;;9.30;99.90;;;;;;5035537;28;20053;-73
2022/11/23 12:12:47;;;;;;;18.00;4.70;;;9.30;99.90;;;;;;5035189;28;20042;-73
2022/11/23 12:15:31;;;;;;;15.30;4.30;;;9.30;99.90;;;;;;5035408;28;20049;-73
2022/11/23 12:18:14;;;;;;;21.35;4.25;;;9.30;99.90;;;;;;5035809;28;20334;-73
2022/11/23 12:21:07;;;;;;;15.35;4.90;;;9.30;99.90;;;;;;5027990;28;20482;-73
2022/11/23 12:23:46;;;;;;;17.20;4.20;;;9.30;99.90;;;;;;5016142;28;20038;-74
2022/11/23 12:26:43;;;;;;;15.07;3.80;;;9.30;99.90;;;;;;5015337;28;20120;-74
2022/11/23 12:29:11;;;;;;;13.80;4.05;;;9.40;99.90;;;;;;5015728;28;20049;-73
2022/11/23 12:31:46;;;;;;;24.20;3.85;;;9.40;99.90;;;;;;5015559;28;20049;-73
2022/11/23 12:34:49;;;;;;;15.38;4.22;;;9.40;99.90;;;;;;5015958;28;20050;-73
2022/11/23 12:37:23;;;;;;;20.27;4.23;;;9.40;99.90;;;;;;5002004;28;20054;-72
2022/11/23 12:40:13;;;;;;;14.65;3.90;;;9.50;99.90;;;;;;5015427;28;20042;-74
2022/11/23 12:42:45;;;;;;;14.88;3.05;;;9.50;99.90;;;;;;5015070;28;20046;-73
2022/11/23 12:45:16;;;;;;;14.52;3.53;;;9.50;99.90;;;;;;5015211;28;20045;-74
2022/11/23 12:48:29;;;;;;;12.93;3.55;;;9.50;99.90;;;;;;4997871;28;20077;-74